Portada
METAR-TAF:

METAR-TAF

Aeroports :

Cascavel, Paranà, Brasil

latitud: 25-00-08S, longitud: 53-30-07W, altitud: 754 m

Observació

L'informe es va fer fa 3 hores i 2 minuts, a les 16:00 UTC
Vent 8 kt del Est
Temperatura 30°C
Humitat 43%
Pressió 1017 hPa
Visibilitat 10 km o més
Núvols disperses a una alçada de 4000 ft

METAR: SBCA 181600Z 09008KT 9999 SCT040 30/16 Q1017

Hora: 17:02 (19:02 UTC)


TAF: manca

Observacions i pronòstics meteorològics de més de 4000 aeroports (METAR i TAF).

Les estacions disponibles són els punts grocs i vermells al mapa.

Posi el ratolí al punt desitjat per veure el nom de l'estació.

Feu clic per veure les observacions i els pronòstics meteorològics.

Per canviar el mapa: feu clic els botons verds amb una creu de color negre per apropar; al botó verd amb un guió per allunyar la imatge; o en les fletxes verdes per a mapes adjacents.


METAR-TAF: